sensor_id;sensor_type;location;lat;lon;timestamp;P1;durP1;ratioP1;P2;durP2;ratioP2
65755;SDS011;69208;47.502;18.940;2023-06-14T00:00:58;6.87;;;3.60;;
65755;SDS011;69208;47.502;18.940;2023-06-14T00:02:01;8.77;;;3.83;;
65755;SDS011;69208;47.502;18.940;2023-06-14T00:03:04;6.28;;;3.60;;
65755;SDS011;69208;47.502;18.940;2023-06-14T00:04:07;5.32;;;3.47;;
65755;SDS011;69208;47.502;18.940;2023-06-14T00:05:11;6.68;;;3.67;;
65755;SDS011;69208;47.502;18.940;2023-06-14T00:06:17;7.68;;;3.67;;
65755;SDS011;69208;47.502;18.940;2023-06-14T00:07:22;8.18;;;3.78;;
65755;SDS011;69208;47.502;18.940;2023-06-14T00:08:36;4.62;;;3.22;;
65755;SDS011;69208;47.502;18.940;2023-06-14T00:09:39;6.82;;;3.85;;
65755;SDS011;69208;47.502;18.940;2023-06-14T00:10:42;4.90;;;3.50;;
65755;SDS011;69208;47.502;18.940;2023-06-14T00:11:45;5.85;;;3.47;;
65755;SDS011;69208;47.502;18.940;2023-06-14T00:12:48;5.22;;;3.87;;
65755;SDS011;69208;47.502;18.940;2023-06-14T00:13:51;7.93;;;3.90;;
65755;SDS011;69208;47.502;18.940;2023-06-14T00:14:53;7.07;;;4.10;;
65755;SDS011;69208;47.502;18.940;2023-06-14T00:15:56;7.00;;;3.83;;
65755;SDS011;69208;47.502;18.940;2023-06-14T00:16:59;6.72;;;3.70;;
65755;SDS011;69208;47.502;18.940;2023-06-14T00:18:02;6.62;;;3.60;;
65755;SDS011;69208;47.502;18.940;2023-06-14T00:19:05;7.15;;;4.05;;
65755;SDS011;69208;47.502;18.940;2023-06-14T00:20:09;6.93;;;3.70;;
65755;SDS011;69208;47.502;18.940;2023-06-14T00:21:12;11.15;;;3.97;;
65755;SDS011;69208;47.502;18.940;2023-06-14T00:22:16;8.98;;;4.28;;
65755;SDS011;69208;47.502;18.940;2023-06-14T00:23:19;7.65;;;3.90;;
65755;SDS011;69208;47.502;18.940;2023-06-14T00:24:22;7.75;;;4.35;;
65755;SDS011;69208;47.502;18.940;2023-06-14T00:25:25;6.45;;;3.83;;
65755;SDS011;69208;47.502;18.940;2023-06-14T00:26:30;5.32;;;4.03;;
65755;SDS011;69208;47.502;18.940;2023-06-14T00:27:33;6.90;;;4.32;;
65755;SDS011;69208;47.502;18.940;2023-06-14T00:28:36;6.65;;;4.00;;
65755;SDS011;69208;47.502;18.940;2023-06-14T00:29:41;6.45;;;3.75;;
65755;SDS011;69208;47.502;18.940;2023-06-14T00:30:44;6.45;;;3.85;;
65755;SDS011;69208;47.502;18.940;2023-06-14T00:31:48;8.30;;;4.40;;
65755;SDS011;69208;47.502;18.940;2023-06-14T00:32:51;6.65;;;4.32;;
65755;SDS011;69208;47.502;18.940;2023-06-14T00:33:55;7.43;;;4.25;;
65755;SDS011;69208;47.502;18.940;2023-06-14T00:34:57;6.30;;;3.70;;
65755;SDS011;69208;47.502;18.940;2023-06-14T00:36:00;7.30;;;4.12;;
65755;SDS011;69208;47.502;18.940;2023-06-14T00:37:03;8.75;;;3.95;;
65755;SDS011;69208;47.502;18.940;2023-06-14T00:38:06;7.68;;;4.05;;
65755;SDS011;69208;47.502;18.940;2023-06-14T00:39:09;5.28;;;3.60;;
65755;SDS011;69208;47.502;18.940;2023-06-14T00:40:12;8.27;;;4.20;;
65755;SDS011;69208;47.502;18.940;2023-06-14T00:41:15;7.40;;;3.62;;
65755;SDS011;69208;47.502;18.940;2023-06-14T00:42:27;6.62;;;4.10;;
65755;SDS011;69208;47.502;18.940;2023-06-14T00:43:30;7.10;;;4.07;;
65755;SDS011;69208;47.502;18.940;2023-06-14T00:44:33;7.50;;;4.28;;
65755;SDS011;69208;47.502;18.940;2023-06-14T00:45:36;7.90;;;4.43;;
65755;SDS011;69208;47.502;18.940;2023-06-14T00:46:39;6.68;;;4.22;;
65755;SDS011;69208;47.502;18.940;2023-06-14T00:47:42;8.65;;;4.45;;
65755;SDS011;69208;47.502;18.940;2023-06-14T00:48:48;6.82;;;4.00;;
65755;SDS011;69208;47.502;18.940;2023-06-14T00:49:51;6.97;;;4.37;;
65755;SDS011;69208;47.502;18.940;2023-06-14T00:50:56;7.32;;;3.92;;
65755;SDS011;69208;47.502;18.940;2023-06-14T00:51:59;5.93;;;4.10;;
65755;SDS011;69208;47.502;18.940;2023-06-14T00:53:02;6.65;;;4.03;;
65755;SDS011;69208;47.502;18.940;2023-06-14T00:54:05;6.75;;;4.28;;
65755;SDS011;69208;47.502;18.940;2023-06-14T00:55:08;7.28;;;4.10;;
65755;SDS011;69208;47.502;18.940;2023-06-14T00:56:11;7.07;;;4.40;;
65755;SDS011;69208;47.502;18.940;2023-06-14T00:57:15;7.12;;;4.22;;
65755;SDS011;69208;47.502;18.940;2023-06-14T00:58:19;8.30;;;4.50;;
65755;SDS011;69208;47.502;18.940;2023-06-14T00:59:24;6.50;;;4.37;;
65755;SDS011;69208;47.502;18.940;2023-06-14T01:00:27;8.43;;;4.80;;
65755;SDS011;69208;47.502;18.940;2023-06-14T01:01:30;6.55;;;4.62;;
65755;SDS011;69208;47.502;18.940;2023-06-14T01:02:36;6.72;;;4.47;;
65755;SDS011;69208;47.502;18.940;2023-06-14T01:03:40;8.77;;;4.37;;
65755;SDS011;69208;47.502;18.940;2023-06-14T01:04:45;6.75;;;4.07;;
65755;SDS011;69208;47.502;18.940;2023-06-14T01:05:53;5.75;;;4.12;;
65755;SDS011;69208;47.502;18.940;2023-06-14T01:07:09;8.10;;;4.10;;
65755;SDS011;69208;47.502;18.940;2023-06-14T01:08:38;6.32;;;4.07;;
65755;SDS011;69208;47.502;18.940;2023-06-14T01:11:25;6.22;;;4.30;;
65755;SDS011;69208;47.502;18.940;2023-06-14T01:13:40;6.90;;;4.50;;
65755;SDS011;69208;47.502;18.940;2023-06-14T01:14:48;5.75;;;3.75;;
65755;SDS011;69208;47.502;18.940;2023-06-14T01:15:52;10.80;;;4.75;;
65755;SDS011;69208;47.502;18.940;2023-06-14T01:16:58;7.80;;;4.55;;
65755;SDS011;69208;47.502;18.940;2023-06-14T01:18:03;7.47;;;4.53;;
65755;SDS011;69208;47.502;18.940;2023-06-14T01:19:07;6.95;;;4.00;;
65755;SDS011;69208;47.502;18.940;2023-06-14T01:20:16;8.95;;;4.20;;
65755;SDS011;69208;47.502;18.940;2023-06-14T01:21:20;5.93;;;3.80;;
65755;SDS011;69208;47.502;18.940;2023-06-14T01:22:25;8.45;;;3.87;;
65755;SDS011;69208;47.502;18.940;2023-06-14T01:23:29;11.68;;;4.30;;
65755;SDS011;69208;47.502;18.940;2023-06-14T01:24:34;5.65;;;3.95;;
65755;SDS011;69208;47.502;18.940;2023-06-14T01:25:37;6.03;;;4.10;;
65755;SDS011;69208;47.502;18.940;2023-06-14T01:26:41;6.68;;;3.90;;
65755;SDS011;69208;47.502;18.940;2023-06-14T01:27:48;7.80;;;4.15;;
65755;SDS011;69208;47.502;18.940;2023-06-14T01:28:57;5.30;;;3.85;;
65755;SDS011;69208;47.502;18.940;2023-06-14T01:30:00;6.32;;;4.22;;
65755;SDS011;69208;47.502;18.940;2023-06-14T01:31:04;5.60;;;4.10;;
65755;SDS011;69208;47.502;18.940;2023-06-14T01:32:09;6.10;;;4.30;;
65755;SDS011;69208;47.502;18.940;2023-06-14T01:33:13;5.32;;;3.87;;
65755;SDS011;69208;47.502;18.940;2023-06-14T01:34:17;7.53;;;4.50;;
65755;SDS011;69208;47.502;18.940;2023-06-14T01:35:20;9.55;;;4.20;;
65755;SDS011;69208;47.502;18.940;2023-06-14T01:36:23;7.47;;;4.55;;
65755;SDS011;69208;47.502;18.940;2023-06-14T01:37:30;9.10;;;4.15;;
65755;SDS011;69208;47.502;18.940;2023-06-14T01:38:33;6.47;;;4.05;;
65755;SDS011;69208;47.502;18.940;2023-06-14T01:39:36;6.50;;;4.30;;
65755;SDS011;69208;47.502;18.940;2023-06-14T01:40:40;6.30;;;4.12;;
65755;SDS011;69208;47.502;18.940;2023-06-14T01:41:47;6.57;;;4.20;;
65755;SDS011;69208;47.502;18.940;2023-06-14T01:42:51;6.20;;;4.50;;
65755;SDS011;69208;47.502;18.940;2023-06-14T01:43:55;6.22;;;4.25;;
65755;SDS011;69208;47.502;18.940;2023-06-14T01:44:59;6.95;;;4.78;;
65755;SDS011;69208;47.502;18.940;2023-06-14T01:46:03;8.90;;;4.15;;
65755;SDS011;69208;47.502;18.940;2023-06-14T01:47:07;6.70;;;4.37;;
65755;SDS011;69208;47.502;18.940;2023-06-14T01:48:10;5.10;;;4.12;;
65755;SDS011;69208;47.502;18.940;2023-06-14T01:49:14;6.87;;;4.35;;
65755;SDS011;69208;47.502;18.940;2023-06-14T01:50:18;8.10;;;5.28;;
65755;SDS011;69208;47.502;18.940;2023-06-14T01:51:22;5.97;;;4.55;;
65755;SDS011;69208;47.502;18.940;2023-06-14T01:52:25;6.65;;;4.45;;
65755;SDS011;69208;47.502;18.940;2023-06-14T01:53:28;10.60;;;4.85;;
65755;SDS011;69208;47.502;18.940;2023-06-14T01:54:30;8.98;;;4.90;;
65755;SDS011;69208;47.502;18.940;2023-06-14T01:55:33;8.70;;;4.97;;
65755;SDS011;69208;47.502;18.940;2023-06-14T01:56:39;9.82;;;5.05;;
65755;SDS011;69208;47.502;18.940;2023-06-14T01:57:42;7.47;;;5.32;;
65755;SDS011;69208;47.502;18.940;2023-06-14T01:58:45;7.60;;;4.53;;
65755;SDS011;69208;47.502;18.940;2023-06-14T01:59:48;7.68;;;5.10;;
65755;SDS011;69208;47.502;18.940;2023-06-14T02:00:51;7.43;;;4.80;;
65755;SDS011;69208;47.502;18.940;2023-06-14T02:01:57;8.88;;;5.20;;
65755;SDS011;69208;47.502;18.940;2023-06-14T02:03:00;9.60;;;5.62;;
65755;SDS011;69208;47.502;18.940;2023-06-14T02:04:04;9.60;;;5.60;;
65755;SDS011;69208;47.502;18.940;2023-06-14T02:05:07;8.52;;;5.78;;
65755;SDS011;69208;47.502;18.940;2023-06-14T02:06:11;7.53;;;5.05;;
65755;SDS011;69208;47.502;18.940;2023-06-14T02:07:14;10.13;;;6.30;;
65755;SDS011;69208;47.502;18.940;2023-06-14T02:08:17;11.12;;;6.22;;
65755;SDS011;69208;47.502;18.940;2023-06-14T02:09:20;8.13;;;5.72;;
65755;SDS011;69208;47.502;18.940;2023-06-14T02:10:23;7.22;;;5.60;;
65755;SDS011;69208;47.502;18.940;2023-06-14T02:11:26;7.05;;;5.35;;
65755;SDS011;69208;47.502;18.940;2023-06-14T02:12:29;7.95;;;5.78;;
65755;SDS011;69208;47.502;18.940;2023-06-14T02:13:32;9.40;;;6.47;;
65755;SDS011;69208;47.502;18.940;2023-06-14T02:14:34;7.87;;;5.90;;
65755;SDS011;69208;47.502;18.940;2023-06-14T02:15:37;9.23;;;6.15;;
65755;SDS011;69208;47.502;18.940;2023-06-14T02:16:40;9.73;;;5.80;;
65755;SDS011;69208;47.502;18.940;2023-06-14T02:17:51;9.85;;;5.87;;
65755;SDS011;69208;47.502;18.940;2023-06-14T02:18:54;8.82;;;6.32;;
65755;SDS011;69208;47.502;18.940;2023-06-14T02:19:57;8.32;;;5.90;;
65755;SDS011;69208;47.502;18.940;2023-06-14T02:21:00;9.98;;;6.65;;
65755;SDS011;69208;47.502;18.940;2023-06-14T02:22:03;9.52;;;6.20;;
65755;SDS011;69208;47.502;18.940;2023-06-14T02:23:06;9.75;;;6.07;;
65755;SDS011;69208;47.502;18.940;2023-06-14T02:24:10;8.48;;;6.35;;
65755;SDS011;69208;47.502;18.940;2023-06-14T02:25:13;9.90;;;6.25;;
65755;SDS011;69208;47.502;18.940;2023-06-14T02:26:16;9.52;;;6.53;;
65755;SDS011;69208;47.502;18.940;2023-06-14T02:27:19;8.00;;;6.07;;
65755;SDS011;69208;47.502;18.940;2023-06-14T02:28:21;11.25;;;5.97;;
65755;SDS011;69208;47.502;18.940;2023-06-14T02:29:24;8.55;;;6.28;;
65755;SDS011;69208;47.502;18.940;2023-06-14T02:30:28;8.00;;;6.05;;
65755;SDS011;69208;47.502;18.940;2023-06-14T02:31:31;10.50;;;6.75;;
65755;SDS011;69208;47.502;18.940;2023-06-14T02:32:35;9.45;;;7.07;;
65755;SDS011;69208;47.502;18.940;2023-06-14T02:33:38;9.07;;;7.18;;
65755;SDS011;69208;47.502;18.940;2023-06-14T02:34:41;8.95;;;6.87;;
65755;SDS011;69208;47.502;18.940;2023-06-14T02:35:44;8.65;;;6.68;;
65755;SDS011;69208;47.502;18.940;2023-06-14T02:36:47;11.68;;;7.93;;
65755;SDS011;69208;47.502;18.940;2023-06-14T02:37:50;11.07;;;8.77;;
65755;SDS011;69208;47.502;18.940;2023-06-14T02:38:53;12.25;;;8.20;;
65755;SDS011;69208;47.502;18.940;2023-06-14T02:39:56;9.90;;;7.80;;
65755;SDS011;69208;47.502;18.940;2023-06-14T02:40:59;10.80;;;8.43;;
65755;SDS011;69208;47.502;18.940;2023-06-14T02:42:04;11.70;;;8.65;;
65755;SDS011;69208;47.502;18.940;2023-06-14T02:43:08;12.52;;;8.52;;
65755;SDS011;69208;47.502;18.940;2023-06-14T02:44:12;10.23;;;8.40;;
65755;SDS011;69208;47.502;18.940;2023-06-14T02:45:16;10.88;;;8.57;;
65755;SDS011;69208;47.502;18.940;2023-06-14T02:46:19;11.55;;;8.98;;
65755;SDS011;69208;47.502;18.940;2023-06-14T02:47:22;11.52;;;8.68;;
65755;SDS011;69208;47.502;18.940;2023-06-14T02:48:25;11.63;;;8.93;;
65755;SDS011;69208;47.502;18.940;2023-06-14T02:49:28;11.90;;;8.43;;
65755;SDS011;69208;47.502;18.940;2023-06-14T02:50:32;13.23;;;8.57;;
65755;SDS011;69208;47.502;18.940;2023-06-14T02:51:34;9.90;;;8.18;;
65755;SDS011;69208;47.502;18.940;2023-06-14T02:52:37;13.38;;;8.35;;
65755;SDS011;69208;47.502;18.940;2023-06-14T02:53:40;12.40;;;8.90;;
65755;SDS011;69208;47.502;18.940;2023-06-14T02:54:43;12.02;;;8.30;;
65755;SDS011;69208;47.502;18.940;2023-06-14T02:55:45;13.05;;;8.80;;
65755;SDS011;69208;47.502;18.940;2023-06-14T02:56:49;14.32;;;9.30;;
65755;SDS011;69208;47.502;18.940;2023-06-14T02:57:52;11.63;;;8.63;;
65755;SDS011;69208;47.502;18.940;2023-06-14T02:58:56;10.93;;;8.52;;
65755;SDS011;69208;47.502;18.940;2023-06-14T02:59:59;12.40;;;9.13;;
65755;SDS011;69208;47.502;18.940;2023-06-14T03:01:04;11.18;;;9.32;;
65755;SDS011;69208;47.502;18.940;2023-06-14T03:02:08;16.02;;;9.38;;
65755;SDS011;69208;47.502;18.940;2023-06-14T03:03:10;13.48;;;8.95;;
65755;SDS011;69208;47.502;18.940;2023-06-14T03:04:19;12.55;;;9.07;;
65755;SDS011;69208;47.502;18.940;2023-06-14T03:05:22;12.32;;;8.40;;
65755;SDS011;69208;47.502;18.940;2023-06-14T03:06:26;11.77;;;8.30;;
65755;SDS011;69208;47.502;18.940;2023-06-14T03:07:31;11.52;;;8.82;;
65755;SDS011;69208;47.502;18.940;2023-06-14T03:08:34;11.05;;;9.07;;
65755;SDS011;69208;47.502;18.940;2023-06-14T03:09:41;12.73;;;9.13;;
65755;SDS011;69208;47.502;18.940;2023-06-14T03:10:44;15.95;;;9.43;;
65755;SDS011;69208;47.502;18.940;2023-06-14T03:11:47;12.68;;;9.13;;
65755;SDS011;69208;47.502;18.940;2023-06-14T03:12:50;10.30;;;8.18;;
65755;SDS011;69208;47.502;18.940;2023-06-14T03:13:54;11.12;;;8.80;;
65755;SDS011;69208;47.502;18.940;2023-06-14T03:14:57;12.15;;;8.98;;
65755;SDS011;69208;47.502;18.940;2023-06-14T03:16:04;11.43;;;8.73;;
65755;SDS011;69208;47.502;18.940;2023-06-14T03:17:07;12.52;;;9.23;;
65755;SDS011;69208;47.502;18.940;2023-06-14T03:18:10;11.30;;;8.60;;
65755;SDS011;69208;47.502;18.940;2023-06-14T03:19:14;11.43;;;8.90;;
65755;SDS011;69208;47.502;18.940;2023-06-14T03:20:17;11.75;;;8.57;;
65755;SDS011;69208;47.502;18.940;2023-06-14T03:21:20;12.80;;;8.90;;
65755;SDS011;69208;47.502;18.940;2023-06-14T03:22:23;12.35;;;8.82;;
65755;SDS011;69208;47.502;18.940;2023-06-14T03:23:27;11.85;;;8.50;;
65755;SDS011;69208;47.502;18.940;2023-06-14T03:24:30;12.50;;;9.13;;
65755;SDS011;69208;47.502;18.940;2023-06-14T03:25:39;13.30;;;9.02;;
65755;SDS011;69208;47.502;18.940;2023-06-14T03:26:44;10.80;;;8.63;;
65755;SDS011;69208;47.502;18.940;2023-06-14T03:27:47;11.10;;;8.35;;
65755;SDS011;69208;47.502;18.940;2023-06-14T03:28:50;12.30;;;9.18;;
65755;SDS011;69208;47.502;18.940;2023-06-14T03:29:53;11.00;;;9.23;;
65755;SDS011;69208;47.502;18.940;2023-06-14T03:30:55;11.38;;;8.27;;
65755;SDS011;69208;47.502;18.940;2023-06-14T03:31:59;11.57;;;8.63;;
65755;SDS011;69208;47.502;18.940;2023-06-14T03:33:03;11.45;;;9.02;;
65755;SDS011;69208;47.502;18.940;2023-06-14T03:34:07;12.45;;;8.80;;
65755;SDS011;69208;47.502;18.940;2023-06-14T03:35:09;13.45;;;9.25;;
65755;SDS011;69208;47.502;18.940;2023-06-14T03:36:19;10.90;;;9.18;;
65755;SDS011;69208;47.502;18.940;2023-06-14T03:37:22;12.45;;;8.82;;
65755;SDS011;69208;47.502;18.940;2023-06-14T03:38:25;11.48;;;8.60;;
65755;SDS011;69208;47.502;18.940;2023-06-14T03:39:27;13.77;;;9.05;;
65755;SDS011;69208;47.502;18.940;2023-06-14T03:40:30;9.82;;;8.15;;
65755;SDS011;69208;47.502;18.940;2023-06-14T03:41:33;12.30;;;8.38;;
65755;SDS011;69208;47.502;18.940;2023-06-14T03:42:36;10.00;;;8.18;;
65755;SDS011;69208;47.502;18.940;2023-06-14T03:43:38;10.90;;;8.65;;
65755;SDS011;69208;47.502;18.940;2023-06-14T03:44:41;10.77;;;8.70;;
65755;SDS011;69208;47.502;18.940;2023-06-14T03:45:44;10.55;;;8.40;;
65755;SDS011;69208;47.502;18.940;2023-06-14T03:46:47;10.40;;;8.25;;
65755;SDS011;69208;47.502;18.940;2023-06-14T03:47:50;11.40;;;8.98;;
65755;SDS011;69208;47.502;18.940;2023-06-14T03:48:53;10.25;;;8.23;;
65755;SDS011;69208;47.502;18.940;2023-06-14T03:49:55;10.38;;;8.55;;
65755;SDS011;69208;47.502;18.940;2023-06-14T03:50:58;10.32;;;8.35;;
65755;SDS011;69208;47.502;18.940;2023-06-14T03:52:03;11.25;;;8.55;;
65755;SDS011;69208;47.502;18.940;2023-06-14T03:53:06;10.75;;;8.30;;
65755;SDS011;69208;47.502;18.940;2023-06-14T03:54:09;10.98;;;8.18;;
65755;SDS011;69208;47.502;18.940;2023-06-14T03:55:31;9.18;;;7.62;;
65755;SDS011;69208;47.502;18.940;2023-06-14T03:56:38;12.02;;;8.20;;
65755;SDS011;69208;47.502;18.940;2023-06-14T03:57:41;10.57;;;8.25;;
65755;SDS011;69208;47.502;18.940;2023-06-14T03:58:43;9.77;;;8.15;;
65755;SDS011;69208;47.502;18.940;2023-06-14T03:59:46;10.88;;;8.15;;
65755;SDS011;69208;47.502;18.940;2023-06-14T04:00:49;10.65;;;8.40;;
65755;SDS011;69208;47.502;18.940;2023-06-14T04:01:53;11.15;;;8.25;;
65755;SDS011;69208;47.502;18.940;2023-06-14T04:02:56;11.27;;;8.13;;
65755;SDS011;69208;47.502;18.940;2023-06-14T04:03:59;10.85;;;7.68;;
65755;SDS011;69208;47.502;18.940;2023-06-14T04:05:02;11.65;;;8.27;;
65755;SDS011;69208;47.502;18.940;2023-06-14T04:06:06;12.20;;;8.60;;
65755;SDS011;69208;47.502;18.940;2023-06-14T04:07:10;9.95;;;8.05;;
65755;SDS011;69208;47.502;18.940;2023-06-14T04:08:16;10.30;;;8.23;;
65755;SDS011;69208;47.502;18.940;2023-06-14T04:09:22;10.68;;;7.95;;
65755;SDS011;69208;47.502;18.940;2023-06-14T04:10:26;11.50;;;8.68;;
65755;SDS011;69208;47.502;18.940;2023-06-14T04:11:30;16.35;;;8.00;;
65755;SDS011;69208;47.502;18.940;2023-06-14T04:12:33;15.68;;;7.87;;
65755;SDS011;69208;47.502;18.940;2023-06-14T04:13:36;10.00;;;8.38;;
65755;SDS011;69208;47.502;18.940;2023-06-14T04:14:41;9.43;;;7.65;;
65755;SDS011;69208;47.502;18.940;2023-06-14T04:15:44;11.18;;;7.57;;
65755;SDS011;69208;47.502;18.940;2023-06-14T04:16:48;12.02;;;8.05;;
65755;SDS011;69208;47.502;18.940;2023-06-14T04:17:51;9.10;;;7.57;;
65755;SDS011;69208;47.502;18.940;2023-06-14T04:18:55;9.90;;;7.82;;
65755;SDS011;69208;47.502;18.940;2023-06-14T04:19:58;14.00;;;8.02;;
65755;SDS011;69208;47.502;18.940;2023-06-14T04:21:02;10.68;;;7.95;;
65755;SDS011;69208;47.502;18.940;2023-06-14T04:22:05;10.30;;;7.55;;
65755;SDS011;69208;47.502;18.940;2023-06-14T04:23:14;10.05;;;7.65;;
65755;SDS011;69208;47.502;18.940;2023-06-14T04:24:20;10.85;;;7.75;;
65755;SDS011;69208;47.502;18.940;2023-06-14T04:25:23;11.10;;;7.87;;
65755;SDS011;69208;47.502;18.940;2023-06-14T04:26:28;11.55;;;7.68;;
65755;SDS011;69208;47.502;18.940;2023-06-14T04:27:32;9.98;;;7.93;;
65755;SDS011;69208;47.502;18.940;2023-06-14T04:28:38;9.43;;;7.47;;
65755;SDS011;69208;47.502;18.940;2023-06-14T04:29:43;9.82;;;7.62;;
65755;SDS011;69208;47.502;18.940;2023-06-14T04:30:46;10.00;;;7.65;;
65755;SDS011;69208;47.502;18.940;2023-06-14T04:31:49;9.45;;;7.43;;
65755;SDS011;69208;47.502;18.940;2023-06-14T04:32:55;9.40;;;7.32;;
65755;SDS011;69208;47.502;18.940;2023-06-14T04:33:58;11.07;;;7.20;;
65755;SDS011;69208;47.502;18.940;2023-06-14T04:35:01;9.95;;;7.40;;
65755;SDS011;69208;47.502;18.940;2023-06-14T04:36:04;11.10;;;7.62;;
65755;SDS011;69208;47.502;18.940;2023-06-14T04:37:07;10.43;;;7.45;;
65755;SDS011;69208;47.502;18.940;2023-06-14T04:38:12;11.07;;;8.75;;
65755;SDS011;69208;47.502;18.940;2023-06-14T04:39:15;9.07;;;7.45;;
65755;SDS011;69208;47.502;18.940;2023-06-14T04:40:20;9.98;;;7.80;;
65755;SDS011;69208;47.502;18.940;2023-06-14T04:41:22;10.85;;;7.15;;
65755;SDS011;69208;47.502;18.940;2023-06-14T04:42:31;8.25;;;6.43;;
65755;SDS011;69208;47.502;18.940;2023-06-14T04:43:34;9.60;;;7.28;;
65755;SDS011;69208;47.502;18.940;2023-06-14T04:44:41;9.90;;;7.47;;
65755;SDS011;69208;47.502;18.940;2023-06-14T04:45:45;11.32;;;7.82;;
65755;SDS011;69208;47.502;18.940;2023-06-14T04:46:49;10.32;;;7.90;;
65755;SDS011;69208;47.502;18.940;2023-06-14T04:47:52;9.35;;;6.72;;
65755;SDS011;69208;47.502;18.940;2023-06-14T04:48:58;9.00;;;7.07;;
65755;SDS011;69208;47.502;18.940;2023-06-14T04:50:04;9.77;;;7.00;;
65755;SDS011;69208;47.502;18.940;2023-06-14T04:51:10;10.73;;;6.65;;
65755;SDS011;69208;47.502;18.940;2023-06-14T04:52:13;9.93;;;7.15;;
65755;SDS011;69208;47.502;18.940;2023-06-14T04:53:16;9.05;;;7.30;;
65755;SDS011;69208;47.502;18.940;2023-06-14T04:54:19;9.02;;;6.95;;
65755;SDS011;69208;47.502;18.940;2023-06-14T04:55:22;10.40;;;6.75;;
65755;SDS011;69208;47.502;18.940;2023-06-14T04:56:24;9.20;;;6.40;;
65755;SDS011;69208;47.502;18.940;2023-06-14T04:57:28;10.13;;;7.15;;
65755;SDS011;69208;47.502;18.940;2023-06-14T04:58:31;10.55;;;7.10;;
65755;SDS011;69208;47.502;18.940;2023-06-14T04:59:34;8.48;;;6.35;;
65755;SDS011;69208;47.502;18.940;2023-06-14T05:00:37;11.52;;;6.78;;
65755;SDS011;69208;47.502;18.940;2023-06-14T05:01:40;9.40;;;6.70;;
65755;SDS011;69208;47.502;18.940;2023-06-14T05:02:43;9.43;;;7.18;;
65755;SDS011;69208;47.502;18.940;2023-06-14T05:03:46;8.50;;;6.72;;
65755;SDS011;69208;47.502;18.940;2023-06-14T05:04:51;8.63;;;6.68;;
65755;SDS011;69208;47.502;18.940;2023-06-14T05:05:55;7.57;;;6.28;;
65755;SDS011;69208;47.502;18.940;2023-06-14T05:06:58;9.95;;;6.55;;
65755;SDS011;69208;47.502;18.940;2023-06-14T05:08:01;7.65;;;6.40;;
65755;SDS011;69208;47.502;18.940;2023-06-14T05:09:03;9.27;;;6.65;;
65755;SDS011;69208;47.502;18.940;2023-06-14T05:10:06;9.52;;;6.70;;
65755;SDS011;69208;47.502;18.940;2023-06-14T05:11:09;9.80;;;6.70;;
65755;SDS011;69208;47.502;18.940;2023-06-14T05:12:12;8.93;;;6.55;;
65755;SDS011;69208;47.502;18.940;2023-06-14T05:13:15;9.30;;;6.43;;
65755;SDS011;69208;47.502;18.940;2023-06-14T05:14:18;9.25;;;6.65;;
65755;SDS011;69208;47.502;18.940;2023-06-14T05:15:20;8.75;;;6.53;;
65755;SDS011;69208;47.502;18.940;2023-06-14T05:16:27;7.90;;;6.22;;
65755;SDS011;69208;47.502;18.940;2023-06-14T05:17:31;9.60;;;6.40;;
65755;SDS011;69208;47.502;18.940;2023-06-14T05:18:34;8.57;;;6.37;;
65755;SDS011;69208;47.502;18.940;2023-06-14T05:19:37;8.55;;;6.65;;
65755;SDS011;69208;47.502;18.940;2023-06-14T05:20:40;11.35;;;6.37;;
65755;SDS011;69208;47.502;18.940;2023-06-14T05:21:44;8.13;;;6.03;;
65755;SDS011;69208;47.502;18.940;2023-06-14T05:22:47;12.73;;;6.75;;
65755;SDS011;69208;47.502;18.940;2023-06-14T05:23:50;8.20;;;6.07;;
65755;SDS011;69208;47.502;18.940;2023-06-14T05:24:53;7.90;;;6.12;;
65755;SDS011;69208;47.502;18.940;2023-06-14T05:25:56;9.52;;;5.87;;
65755;SDS011;69208;47.502;18.940;2023-06-14T05:26:59;8.90;;;6.87;;
65755;SDS011;69208;47.502;18.940;2023-06-14T05:28:01;8.93;;;6.18;;
65755;SDS011;69208;47.502;18.940;2023-06-14T05:29:05;9.77;;;6.78;;
65755;SDS011;69208;47.502;18.940;2023-06-14T05:30:08;9.15;;;6.12;;
65755;SDS011;69208;47.502;18.940;2023-06-14T05:31:11;11.85;;;6.40;;
65755;SDS011;69208;47.502;18.940;2023-06-14T05:32:14;8.68;;;6.25;;
65755;SDS011;69208;47.502;18.940;2023-06-14T05:33:17;8.13;;;6.25;;
65755;SDS011;69208;47.502;18.940;2023-06-14T05:34:20;10.80;;;6.50;;
65755;SDS011;69208;47.502;18.940;2023-06-14T05:35:22;8.55;;;6.53;;
65755;SDS011;69208;47.502;18.940;2023-06-14T05:36:25;8.85;;;6.40;;
65755;SDS011;69208;47.502;18.940;2023-06-14T05:37:30;10.23;;;6.40;;
65755;SDS011;69208;47.502;18.940;2023-06-14T05:38:33;8.45;;;6.15;;
65755;SDS011;69208;47.502;18.940;2023-06-14T05:39:36;8.48;;;6.53;;
65755;SDS011;69208;47.502;18.940;2023-06-14T05:40:38;10.00;;;6.62;;
65755;SDS011;69208;47.502;18.940;2023-06-14T05:41:41;9.90;;;6.70;;
65755;SDS011;69208;47.502;18.940;2023-06-14T05:42:44;8.48;;;6.25;;
65755;SDS011;69208;47.502;18.940;2023-06-14T05:43:47;10.10;;;6.50;;
65755;SDS011;69208;47.502;18.940;2023-06-14T05:44:50;7.82;;;6.00;;
65755;SDS011;69208;47.502;18.940;2023-06-14T05:45:53;9.55;;;6.25;;
65755;SDS011;69208;47.502;18.940;2023-06-14T05:46:56;9.30;;;6.12;;
65755;SDS011;69208;47.502;18.940;2023-06-14T05:47:58;8.23;;;5.65;;
65755;SDS011;69208;47.502;18.940;2023-06-14T05:49:01;9.93;;;7.15;;
65755;SDS011;69208;47.502;18.940;2023-06-14T05:50:04;8.40;;;6.62;;
65755;SDS011;69208;47.502;18.940;2023-06-14T05:51:08;8.93;;;6.40;;
65755;SDS011;69208;47.502;18.940;2023-06-14T05:52:11;9.73;;;6.60;;
65755;SDS011;69208;47.502;18.940;2023-06-14T05:53:15;16.23;;;6.78;;
65755;SDS011;69208;47.502;18.940;2023-06-14T05:54:18;9.40;;;6.50;;
65755;SDS011;69208;47.502;18.940;2023-06-14T05:55:20;8.15;;;6.45;;
65755;SDS011;69208;47.502;18.940;2023-06-14T05:56:23;8.45;;;6.07;;
65755;SDS011;69208;47.502;18.940;2023-06-14T05:57:26;10.18;;;6.62;;
65755;SDS011;69208;47.502;18.940;2023-06-14T05:58:29;10.40;;;6.45;;
65755;SDS011;69208;47.502;18.940;2023-06-14T05:59:32;8.60;;;6.07;;
65755;SDS011;69208;47.502;18.940;2023-06-14T06:00:35;10.35;;;6.22;;
65755;SDS011;69208;47.502;18.940;2023-06-14T06:01:38;8.85;;;6.28;;
65755;SDS011;69208;47.502;18.940;2023-06-14T06:02:43;9.80;;;6.12;;
65755;SDS011;69208;47.502;18.940;2023-06-14T06:03:47;9.50;;;7.07;;
65755;SDS011;69208;47.502;18.940;2023-06-14T06:04:50;8.50;;;6.50;;
65755;SDS011;69208;47.502;18.940;2023-06-14T06:05:53;7.82;;;6.00;;
65755;SDS011;69208;47.502;18.940;2023-06-14T06:06:56;8.90;;;6.32;;
65755;SDS011;69208;47.502;18.940;2023-06-14T06:07:58;8.38;;;6.20;;
65755;SDS011;69208;47.502;18.940;2023-06-14T06:09:02;28.98;;;6.68;;
65755;SDS011;69208;47.502;18.940;2023-06-14T06:10:05;8.27;;;6.68;;
65755;SDS011;69208;47.502;18.940;2023-06-14T06:11:08;9.15;;;6.45;;
65755;SDS011;69208;47.502;18.940;2023-06-14T06:12:11;11.77;;;6.50;;
65755;SDS011;69208;47.502;18.940;2023-06-14T06:13:14;8.10;;;6.10;;
65755;SDS011;69208;47.502;18.940;2023-06-14T06:14:17;7.75;;;5.60;;
65755;SDS011;69208;47.502;18.940;2023-06-14T06:15:20;10.18;;;5.95;;
65755;SDS011;69208;47.502;18.940;2023-06-14T06:16:23;8.32;;;5.57;;
65755;SDS011;69208;47.502;18.940;2023-06-14T06:17:26;7.72;;;5.57;;
65755;SDS011;69208;47.502;18.940;2023-06-14T06:18:43;12.65;;;5.53;;
65755;SDS011;69208;47.502;18.940;2023-06-14T06:19:47;7.45;;;5.22;;
65755;SDS011;69208;47.502;18.940;2023-06-14T06:20:49;7.78;;;5.87;;